createdAt,value
2023-05-05T00:05:00.061Z,66.9
2023-05-05T00:09:59.846Z,68.1
2023-05-05T00:15:00.347Z,67.1
2023-05-05T00:19:59.877Z,68.3
2023-05-05T00:24:59.892Z,68.9
2023-05-05T00:30:00.397Z,68.4
2023-05-05T00:34:59.889Z,68.9
2023-05-05T00:39:59.877Z,70.4
2023-05-05T00:44:59.871Z,71.7
2023-05-05T00:49:59.776Z,74
2023-05-05T00:54:59.882Z,75.7
2023-05-05T00:59:59.740Z,75.9
2023-05-05T01:04:59.955Z,77.3
2023-05-05T01:10:18.142Z,78.1
2023-05-05T01:15:43.626Z,78.2
2023-05-05T01:20:06.721Z,78.2
2023-05-05T01:24:59.998Z,78.5
2023-05-05T01:30:04.138Z,78.8
2023-05-05T01:35:01.191Z,79
2023-05-05T01:40:02.359Z,78.6
2023-05-05T01:45:01.110Z,79.6
2023-05-05T01:50:00.690Z,81.8
2023-05-05T01:55:00.511Z,83.6
2023-05-05T02:00:01.036Z,86.9
2023-05-05T02:05:01.622Z,87.9
2023-05-05T02:10:01.354Z,89.3
2023-05-05T02:15:01.399Z,89.3
2023-05-05T02:20:00.854Z,89.6
2023-05-05T02:24:59.427Z,30
2023-05-05T02:30:02.115Z,31
2023-05-05T02:35:08.375Z,31
2023-05-05T02:39:59.247Z,31
2023-05-05T02:45:03.555Z,32
2023-05-05T02:49:59.790Z,32
2023-05-05T02:54:59.719Z,32
2023-05-05T03:00:02.224Z,32
2023-05-05T03:04:59.419Z,32
2023-05-05T03:09:59.364Z,33
2023-05-05T03:15:00.229Z,33
2023-05-05T03:20:01.616Z,33
2023-05-05T03:24:59.368Z,32
2023-05-05T03:29:59.688Z,32
2023-05-05T03:34:59.512Z,32
2023-05-05T03:39:59.245Z,32
2023-05-05T03:44:59.413Z,32
2023-05-05T03:49:59.722Z,32
2023-05-05T03:54:59.233Z,33
2023-05-05T03:59:59.728Z,33
2023-05-05T04:04:59.310Z,33
2023-05-05T04:09:59.399Z,33
2023-05-05T04:14:59.422Z,34
2023-05-05T04:19:59.521Z,34
2023-05-05T04:24:59.696Z,34
2023-05-05T04:29:59.384Z,34
2023-05-05T04:34:59.420Z,34
2023-05-05T04:39:59.423Z,35
2023-05-05T04:44:59.307Z,34
2023-05-05T04:49:59.121Z,35
2023-05-05T04:54:59.011Z,35
2023-05-05T04:59:59.686Z,35
2023-05-05T05:04:58.908Z,35
2023-05-05T05:09:59.481Z,35
2023-05-05T05:14:59.253Z,35
2023-05-05T05:19:59.334Z,35
2023-05-05T05:24:59.228Z,35
2023-05-05T05:29:59.404Z,35
2023-05-05T05:34:59.294Z,35
2023-05-05T05:39:59.294Z,35
2023-05-05T05:44:59.684Z,35
2023-05-05T05:49:59.342Z,35
2023-05-05T05:54:59.031Z,35
2023-05-05T06:00:01.152Z,35
2023-05-05T06:04:59.503Z,35
2023-05-05T06:10:07.735Z,35
2023-05-05T06:14:59.501Z,36
2023-05-05T06:19:59.034Z,36
2023-05-05T06:24:58.978Z,36
2023-05-05T06:29:58.774Z,36
2023-05-05T06:34:59.094Z,36
2023-05-05T06:39:59.225Z,36
2023-05-05T06:44:58.977Z,36
2023-05-05T06:49:59.048Z,36
2023-05-05T06:54:59.066Z,35
2023-05-05T06:59:59.238Z,35
2023-05-05T07:04:59.170Z,35
2023-05-05T07:09:59.132Z,89.1
2023-05-05T07:14:59.953Z,87.6
2023-05-05T07:19:59.001Z,87.9
2023-05-05T07:24:58.801Z,87.7
2023-05-05T07:29:59.651Z,85.9
2023-05-05T07:34:58.975Z,85.6
2023-05-05T07:39:58.917Z,84.5
2023-05-05T07:44:58.595Z,82
2023-05-05T07:49:58.677Z,83.4
2023-05-05T07:54:58.957Z,80.7
2023-05-05T07:59:58.876Z,79.5
2023-05-05T08:04:58.828Z,79
2023-05-05T08:09:58.860Z,77.8
2023-05-05T08:14:59.036Z,78
2023-05-05T08:19:59.279Z,76.2
2023-05-05T08:24:58.930Z,76
2023-05-05T08:29:58.978Z,73.2
2023-05-05T08:35:00.048Z,73.6
2023-05-05T08:39:58.467Z,74.3
2023-05-05T08:44:59.134Z,73.5
2023-05-05T08:49:59.312Z,72.5
2023-05-05T08:54:58.443Z,71.2
2023-05-05T08:59:58.925Z,73.2
2023-05-05T09:04:59.174Z,72.4
2023-05-05T09:09:58.949Z,74.4
2023-05-05T09:15:05.407Z,73.5
2023-05-05T09:19:58.702Z,74.6
2023-05-05T09:24:58.657Z,75.9
2023-05-05T09:29:58.454Z,77.8
2023-05-05T09:34:58.955Z,30
2023-05-05T09:39:58.601Z,34
2023-05-05T09:45:00.006Z,35
2023-05-05T09:49:58.636Z,35
2023-05-05T09:54:58.765Z,35
2023-05-05T09:59:59.671Z,35
2023-05-05T10:05:14.553Z,35
2023-05-05T10:09:58.628Z,35
2023-05-05T10:15:00.300Z,35
2023-05-05T10:20:00.448Z,35
2023-05-05T10:25:01.344Z,35
2023-05-05T12:05:19.890Z,35
2023-05-05T12:10:01.205Z,35
2023-05-05T12:15:00.940Z,35
2023-05-05T12:20:01.003Z,35
2023-05-05T12:25:00.603Z,35
2023-05-05T12:30:17.022Z,35
2023-05-05T12:35:00.822Z,35
2023-05-05T12:40:01.222Z,35
2023-05-05T12:45:00.941Z,35
2023-05-05T12:50:00.796Z,35
2023-05-05T12:55:00.879Z,35
2023-05-05T13:00:00.621Z,35
2023-05-05T13:05:00.706Z,35
2023-05-05T13:10:00.903Z,35
2023-05-05T13:15:00.901Z,35
2023-05-05T13:20:00.947Z,35
2023-05-05T13:25:00.888Z,35
2023-05-05T13:30:00.777Z,35
2023-05-05T13:35:01.099Z,35
2023-05-05T13:40:00.936Z,35
2023-05-05T13:45:00.509Z,35
2023-05-05T13:50:00.637Z,35
2023-05-05T13:55:00.712Z,49
2023-05-05T14:00:00.862Z,49
2023-05-05T14:05:00.557Z,49
2023-05-05T14:10:00.569Z,49
2023-05-05T14:15:00.557Z,49
2023-05-05T14:20:00.769Z,49
2023-05-05T14:25:00.782Z,49
2023-05-05T14:30:00.605Z,49
2023-05-05T14:35:00.800Z,49
2023-05-05T14:40:00.548Z,49
2023-05-05T14:45:00.676Z,49
2023-05-05T14:50:00.628Z,49
2023-05-05T14:55:00.870Z,49
2023-05-05T15:00:00.853Z,49
2023-05-05T15:05:00.601Z,49
2023-05-05T15:10:01.067Z,49
2023-05-05T15:15:00.826Z,49
2023-05-05T15:20:00.606Z,49
2023-05-05T15:25:00.639Z,49
2023-05-05T15:30:00.778Z,49
2023-05-05T15:35:00.540Z,49
2023-05-05T15:40:00.661Z,49
2023-05-05T15:45:00.645Z,49
2023-05-05T15:50:01.000Z,49
2023-05-05T15:55:00.505Z,49
2023-05-05T16:00:01.101Z,49
2023-05-05T16:05:00.660Z,49
2023-05-05T16:10:00.951Z,49
2023-05-05T16:15:00.541Z,49
2023-05-05T16:20:00.725Z,49
2023-05-05T16:25:00.381Z,49
2023-05-05T16:30:01.130Z,49
2023-05-05T16:35:01.142Z,49
2023-05-05T16:40:00.632Z,49
2023-05-05T16:45:01.008Z,49
2023-05-05T16:50:00.827Z,49
2023-05-05T16:55:00.622Z,49
2023-05-05T17:00:00.605Z,49
2023-05-05T17:05:00.583Z,49
2023-05-05T17:10:00.839Z,49
2023-05-05T17:15:00.538Z,49
2023-05-05T17:20:00.708Z,49
2023-05-05T17:25:00.347Z,49
2023-05-05T17:30:00.511Z,49
2023-05-05T17:35:01.007Z,49
2023-05-05T17:40:01.014Z,49
2023-05-05T17:45:00.377Z,49
2023-05-05T17:50:00.998Z,49
2023-05-05T17:55:00.421Z,49
2023-05-05T18:00:02.014Z,49
2023-05-05T18:05:01.104Z,49
2023-05-05T18:10:00.629Z,49
2023-05-05T18:15:00.391Z,49
2023-05-05T18:20:00.507Z,49
2023-05-05T18:25:00.580Z,49
2023-05-05T18:30:00.311Z,49
2023-05-05T18:35:00.364Z,49
2023-05-05T18:40:00.754Z,49
2023-05-05T18:45:00.566Z,49
2023-05-05T18:50:00.675Z,49
2023-05-05T18:55:00.377Z,49
2023-05-05T19:00:00.448Z,49
2023-05-05T19:05:00.675Z,49
2023-05-05T19:10:00.502Z,49
2023-05-05T19:15:00.667Z,49
2023-05-05T19:20:00.557Z,49
2023-05-05T19:25:00.343Z,49
2023-05-05T19:30:00.594Z,49
2023-05-05T19:35:00.607Z,49
2023-05-05T19:40:00.512Z,49
2023-05-05T19:45:00.234Z,49
2023-05-05T19:50:00.708Z,49
2023-05-05T19:55:00.348Z,49
2023-05-05T20:00:00.612Z,49
2023-05-05T20:05:00.609Z,49
2023-05-05T20:10:00.260Z,49
2023-05-05T20:15:00.425Z,49
2023-05-05T20:20:00.590Z,49
2023-05-05T20:25:00.431Z,49
2023-05-05T20:30:00.534Z,49
2023-05-05T20:35:00.306Z,49
2023-05-05T20:40:00.471Z,49
2023-05-05T20:45:00.471Z,49
2023-05-05T20:50:00.656Z,49
2023-05-05T20:55:00.628Z,49
2023-05-05T21:00:00.384Z,49
2023-05-05T21:05:00.413Z,49
2023-05-05T21:10:00.522Z,49
2023-05-05T21:15:00.148Z,49
2023-05-05T21:20:00.644Z,47
2023-05-05T21:25:08.875Z,47
2023-05-05T21:30:00.310Z,47
2023-05-05T21:35:00.398Z,47
2023-05-05T21:40:00.406Z,47
2023-05-05T21:45:00.110Z,47
2023-05-05T21:50:00.208Z,47
2023-05-05T21:55:00.192Z,47
2023-05-05T22:00:00.196Z,47
2023-05-05T22:05:00.586Z,47
2023-05-05T22:10:00.312Z,47
2023-05-05T22:15:00.229Z,47
2023-05-05T22:20:00.216Z,47
2023-05-05T22:25:00.357Z,47
2023-05-05T22:30:00.401Z,47
2023-05-05T22:35:00.359Z,47
2023-05-05T22:40:00.061Z,47
2023-05-05T22:45:00.025Z,47
2023-05-05T22:50:00.095Z,47
2023-05-05T22:55:00.179Z,47
2023-05-05T23:00:00.219Z,47
2023-05-05T23:05:00.153Z,47
2023-05-05T23:10:00.308Z,47
2023-05-05T23:15:00.271Z,48
2023-05-05T23:20:00.225Z,48
2023-05-05T23:25:00.442Z,48
2023-05-05T23:30:00.065Z,48
2023-05-05T23:40:06.640Z,48
2023-05-05T23:45:01.206Z,48
2023-05-05T23:50:00.515Z,48
2023-05-05T23:55:00.603Z,48
